createdAt,value
2018-12-14T00:00:33.114Z,28.30
2018-12-14T00:03:03.585Z,28.07
2018-12-14T00:05:34.163Z,23.00
2018-12-14T00:08:04.654Z,25.50
2018-12-14T00:10:35.036Z,23.47
2018-12-14T00:13:05.343Z,27.13
2018-12-14T00:15:35.715Z,24.30
2018-12-14T00:18:05.945Z,24.70
2018-12-14T00:20:36.352Z,21.50
2018-12-14T00:23:06.683Z,22.87
2018-12-14T00:25:36.999Z,22.73
2018-12-14T00:28:07.295Z,21.17
2018-12-14T00:30:37.591Z,20.30
2018-12-14T00:33:07.907Z,21.77
2018-12-14T00:35:38.424Z,20.43
2018-12-14T00:38:08.682Z,20.77
2018-12-14T00:40:39.003Z,18.73
2018-12-14T00:43:09.307Z,18.53
2018-12-14T00:45:39.559Z,20.00
2018-12-14T00:48:09.823Z,22.30
2018-12-14T00:50:40.124Z,22.93
2018-12-14T00:53:10.436Z,20.53
2018-12-14T00:55:40.832Z,20.03
2018-12-14T00:58:11.334Z,21.07
2018-12-14T01:00:41.595Z,18.17
2018-12-14T01:03:11.918Z,20.67
2018-12-14T01:05:42.175Z,20.37
2018-12-14T01:08:12.527Z,18.43
2018-12-14T01:10:42.790Z,18.40
2018-12-14T01:13:13.160Z,20.03
2018-12-14T01:15:43.439Z,21.13
2018-12-14T01:18:13.775Z,21.00
2018-12-14T01:20:44.131Z,17.80
2018-12-14T01:23:13.964Z,18.43
2018-12-14T01:25:44.335Z,18.80
2018-12-14T01:28:14.607Z,18.67
2018-12-14T01:30:44.870Z,18.73
2018-12-14T01:33:15.171Z,19.50
2018-12-14T01:35:45.573Z,19.83
2018-12-14T01:38:15.847Z,18.90
2018-12-14T01:40:46.193Z,19.47
2018-12-14T01:43:16.468Z,18.53
2018-12-14T01:45:46.820Z,18.57
2018-12-14T01:48:17.115Z,18.63
2018-12-14T01:50:47.825Z,18.67
2018-12-14T01:53:18.141Z,18.80
2018-12-14T01:55:48.478Z,19.93
2018-12-14T01:58:19.051Z,18.87
2018-12-14T02:00:49.385Z,19.33
2018-12-14T02:03:19.615Z,18.90
2018-12-14T02:05:50.086Z,18.17
2018-12-14T02:08:20.328Z,19.43
2018-12-14T02:10:50.728Z,19.13
2018-12-14T02:13:21.053Z,19.93
2018-12-14T02:15:51.322Z,22.67
2018-12-14T02:18:21.662Z,22.93
2018-12-14T02:21:30.834Z,18.97
2018-12-14T02:24:01.340Z,18.00
2018-12-14T02:26:31.658Z,19.07
2018-12-14T02:29:01.399Z,18.07
2018-12-14T02:31:31.660Z,18.37
2018-12-14T02:34:01.900Z,19.13
2018-12-14T02:39:30.649Z,19.27
2018-12-14T02:42:00.867Z,19.77
2018-12-14T02:44:31.295Z,20.03
2018-12-14T02:47:01.548Z,19.77
2018-12-14T02:49:31.915Z,22.80
2018-12-14T02:52:02.127Z,21.17
2018-12-14T02:54:32.431Z,20.93
2018-12-14T02:57:02.759Z,19.77
2018-12-14T02:59:33.120Z,19.83
2018-12-14T03:02:03.640Z,18.23
2018-12-14T03:04:33.890Z,19.20
2018-12-14T03:07:04.136Z,18.17
2018-12-14T03:09:34.379Z,19.47
2018-12-14T03:12:04.674Z,20.03
2018-12-14T03:14:35.095Z,17.43
2018-12-14T03:17:05.600Z,19.57
2018-12-14T03:19:35.819Z,19.57
2018-12-14T03:22:06.100Z,18.37
2018-12-14T03:24:36.472Z,20.00
2018-12-14T03:27:06.804Z,20.23
2018-12-14T03:29:37.108Z,20.10
2018-12-14T03:32:07.419Z,19.63
2018-12-14T03:34:37.710Z,21.47
2018-12-14T03:37:08.044Z,19.47
2018-12-14T03:39:38.376Z,20.93
2018-12-14T03:42:08.808Z,19.67
2018-12-14T03:44:39.483Z,20.37
2018-12-14T03:47:09.760Z,18.47
2018-12-14T03:49:40.200Z,20.23
2018-12-14T03:52:10.475Z,19.00
2018-12-14T03:54:40.820Z,19.90
2018-12-14T03:57:11.018Z,18.80
2018-12-14T03:59:41.495Z,22.00
2018-12-14T04:02:11.816Z,22.07
2018-12-14T04:04:42.178Z,21.10
2018-12-14T04:07:12.514Z,19.40
2018-12-14T04:09:43.168Z,21.67
2018-12-14T04:12:13.723Z,21.77
2018-12-14T04:14:44.030Z,21.17
2018-12-14T04:17:14.355Z,21.53
2018-12-14T04:19:44.744Z,20.70
2018-12-14T04:22:14.915Z,25.43
2018-12-14T04:27:39.351Z,22.10
2018-12-14T04:30:09.845Z,22.30
2018-12-14T04:32:40.228Z,22.40
2018-12-14T04:35:10.705Z,21.20
2018-12-14T04:44:18.101Z,20.30
2018-12-14T04:46:48.407Z,18.30
2018-12-14T04:49:18.828Z,19.80
2018-12-14T04:51:49.179Z,20.93
2018-12-14T04:54:20.027Z,24.80
2018-12-14T04:56:50.377Z,21.57
2018-12-14T04:59:21.044Z,21.77
2018-12-14T05:01:51.653Z,21.03
2018-12-14T05:04:22.103Z,22.03
2018-12-14T05:06:52.453Z,22.90
2018-12-14T05:09:22.947Z,20.07
2018-12-14T05:11:53.345Z,18.67
2018-12-14T05:14:23.706Z,19.53
2018-12-14T05:16:54.097Z,20.10
2018-12-14T05:19:24.486Z,20.53
2018-12-14T05:21:54.998Z,21.20
2018-12-14T05:24:25.414Z,17.67
2018-12-14T05:26:55.765Z,18.37
2018-12-14T05:29:26.299Z,18.87
2018-12-14T05:31:56.661Z,17.57
2018-12-14T05:34:27.013Z,17.37
2018-12-14T05:36:57.569Z,18.50
2018-12-14T05:39:28.061Z,18.93
2018-12-14T05:41:58.463Z,20.40
2018-12-14T05:44:28.308Z,18.67
2018-12-14T05:46:58.696Z,21.17
2018-12-14T05:49:29.194Z,19.30
2018-12-14T05:51:59.490Z,22.83
2018-12-14T05:54:29.790Z,19.03
2018-12-14T05:57:00.093Z,19.33
2018-12-14T05:59:30.578Z,19.20
2018-12-14T06:02:00.946Z,20.70
2018-12-14T06:04:31.399Z,19.73
2018-12-14T06:07:01.781Z,19.70
2018-12-14T06:09:32.182Z,21.17
2018-12-14T06:12:02.632Z,19.70
2018-12-14T06:14:33.097Z,18.73
2018-12-14T06:17:03.501Z,27.97
2018-12-14T06:19:33.868Z,19.20
2018-12-14T06:22:04.138Z,36.47
2018-12-14T06:24:34.580Z,45.53
2018-12-14T06:27:05.105Z,31.13
2018-12-14T06:29:35.676Z,26.60
2018-12-14T06:32:05.913Z,20.30
2018-12-14T06:34:36.388Z,20.13
2018-12-14T06:37:07.109Z,24.10
2018-12-14T06:39:37.445Z,24.90
2018-12-14T06:42:08.012Z,23.80
2018-12-14T06:44:38.578Z,23.40
2018-12-14T06:47:08.876Z,24.30
2018-12-14T06:49:39.357Z,21.27
2018-12-14T06:52:09.689Z,23.40
2018-12-14T06:54:40.133Z,28.17
2018-12-14T06:57:10.372Z,18.97
2018-12-14T06:59:40.887Z,22.87
2018-12-14T07:02:11.320Z,23.40
2018-12-14T07:04:41.734Z,19.53
2018-12-14T07:07:11.941Z,22.00
2018-12-14T07:09:42.794Z,23.73
2018-12-14T07:12:12.988Z,24.23
2018-12-14T07:14:43.453Z,22.50
2018-12-14T07:17:13.796Z,21.63
2018-12-14T07:19:44.513Z,21.33
2018-12-14T07:22:14.814Z,21.33
2018-12-14T07:24:45.133Z,24.53
2018-12-14T07:27:15.706Z,24.17
2018-12-14T07:29:45.993Z,19.77
2018-12-14T07:32:16.306Z,22.07
2018-12-14T07:34:46.792Z,24.97
2018-12-14T07:37:17.132Z,26.70
2018-12-14T07:39:47.511Z,25.43
2018-12-14T07:42:17.898Z,21.77
2018-12-14T07:44:48.431Z,19.30
2018-12-14T07:47:18.792Z,20.93
2018-12-14T07:49:49.213Z,17.93
2018-12-14T07:52:19.381Z,19.83
2018-12-14T07:54:49.910Z,19.40
2018-12-14T07:57:20.120Z,23.17
2018-12-14T07:59:50.476Z,15.63
2018-12-14T08:02:20.609Z,18.70
2018-12-14T08:04:50.348Z,20.10
2018-12-14T08:07:20.736Z,22.03
2018-12-14T08:09:51.045Z,19.50
2018-12-14T08:12:21.486Z,24.00
2018-12-14T08:14:51.874Z,21.77
2018-12-14T08:17:22.132Z,21.73
2018-12-14T08:19:52.184Z,21.13
2018-12-14T08:22:22.507Z,22.57
2018-12-14T08:24:52.832Z,19.90
2018-12-14T08:27:23.217Z,17.20
2018-12-14T08:29:53.534Z,17.10
2018-12-14T08:32:25.253Z,19.20
2018-12-14T08:34:55.542Z,14.43
2018-12-14T08:37:25.857Z,17.97
2018-12-14T08:39:56.154Z,13.37
2018-12-14T08:42:26.436Z,18.40
2018-12-14T08:44:56.848Z,22.70
2018-12-14T08:47:27.093Z,18.53
2018-12-14T08:49:57.346Z,13.37
2018-12-14T08:52:27.692Z,17.80
2018-12-14T08:54:58.000Z,18.83
2018-12-14T08:57:28.346Z,18.63
2018-12-14T08:59:58.770Z,16.00
2018-12-14T09:02:29.058Z,16.67
2018-12-14T09:04:59.451Z,16.43
2018-12-14T09:07:29.641Z,18.83
2018-12-14T09:09:59.412Z,15.93
2018-12-14T09:12:29.648Z,17.13
2018-12-14T09:14:59.975Z,16.13
2018-12-14T09:17:30.193Z,15.87
2018-12-14T09:20:00.792Z,15.37
2018-12-14T09:22:31.012Z,13.27
2018-12-14T09:25:01.222Z,15.00
2018-12-14T09:27:31.385Z,15.70
2018-12-14T09:30:01.801Z,16.07
2018-12-14T09:32:32.137Z,16.00
2018-12-14T09:35:02.646Z,13.17
2018-12-14T09:37:33.022Z,12.00
2018-12-14T09:40:03.401Z,15.10
2018-12-14T09:42:33.697Z,15.53
2018-12-14T09:45:04.337Z,14.70
2018-12-14T09:47:34.592Z,15.43
2018-12-14T09:50:05.161Z,16.87
2018-12-14T09:52:35.656Z,11.33
2018-12-14T09:55:06.077Z,14.23
2018-12-14T09:57:36.358Z,16.90
2018-12-14T10:00:06.674Z,17.47
2018-12-14T10:02:36.830Z,17.83
2018-12-14T10:05:08.634Z,15.87
2018-12-14T10:07:38.224Z,11.63
2018-12-14T10:10:08.955Z,18.80
2018-12-14T10:12:39.033Z,12.33
2018-12-14T10:15:09.677Z,12.17
2018-12-14T10:17:40.021Z,18.63
2018-12-14T10:20:11.056Z,18.20
2018-12-14T10:22:41.635Z,20.37
2018-12-14T10:25:11.869Z,19.70
2018-12-14T10:27:42.393Z,19.87
2018-12-14T10:30:12.799Z,19.37
2018-12-14T10:32:43.014Z,21.13
2018-12-14T10:35:13.662Z,22.03
2018-12-14T10:37:43.936Z,18.97
2018-12-14T10:40:14.370Z,16.50
2018-12-14T10:42:44.682Z,19.87
2018-12-14T10:45:15.065Z,18.57
2018-12-14T10:47:45.291Z,20.63
2018-12-14T10:50:15.475Z,18.90
2018-12-14T10:52:45.019Z,21.93
2018-12-14T10:55:15.388Z,17.37
2018-12-14T10:57:45.816Z,18.73
2018-12-14T11:00:22.683Z,14.57
2018-12-14T11:02:52.867Z,18.17
2018-12-14T11:05:23.220Z,18.00
2018-12-14T11:07:53.421Z,16.70
2018-12-14T11:10:23.728Z,19.27
2018-12-14T11:12:53.901Z,16.23
2018-12-14T11:15:24.240Z,18.17
2018-12-14T11:17:54.583Z,16.23
2018-12-14T11:20:24.873Z,16.23
2018-12-14T11:22:55.190Z,18.77
2018-12-14T11:25:25.562Z,14.03
2018-12-14T11:27:55.844Z,17.50
2018-12-14T11:30:26.072Z,15.23
2018-12-14T11:32:56.296Z,15.63
2018-12-14T11:35:26.589Z,13.10
2018-12-14T11:37:56.903Z,20.57
2018-12-14T11:40:27.246Z,29.07
2018-12-14T11:42:57.700Z,14.93
2018-12-14T11:45:28.057Z,19.67
2018-12-14T11:47:58.471Z,16.57
2018-12-14T11:50:28.908Z,20.67
2018-12-14T11:52:59.247Z,19.17
2018-12-14T11:55:29.376Z,19.03
2018-12-14T11:57:59.661Z,20.10
2018-12-14T12:00:29.911Z,17.97
2018-12-14T12:03:00.036Z,14.80
2018-12-14T12:05:30.494Z,13.47
2018-12-14T12:08:01.117Z,15.00
2018-12-14T12:10:31.573Z,33.33
2018-12-14T12:13:01.854Z,27.83
2018-12-14T12:15:32.142Z,32.43
2018-12-14T12:18:02.391Z,15.00
2018-12-14T12:20:32.857Z,19.40
2018-12-14T12:23:03.241Z,42.23
2018-12-14T12:25:33.538Z,19.43
2018-12-14T12:28:03.784Z,23.20
2018-12-14T12:30:34.024Z,19.13
2018-12-14T12:33:04.258Z,21.27
2018-12-14T12:35:34.633Z,27.20
2018-12-14T12:38:04.803Z,33.50
2018-12-14T12:40:35.256Z,19.17
2018-12-14T12:43:05.564Z,18.70
2018-12-14T12:45:35.857Z,19.03
2018-12-14T12:48:05.928Z,22.37
2018-12-14T12:50:36.213Z,24.17
2018-12-14T12:53:06.552Z,42.27
2018-12-14T12:55:36.897Z,41.87
2018-12-14T12:58:07.553Z,22.87
2018-12-14T13:00:37.910Z,29.57
2018-12-14T13:03:08.153Z,21.73
2018-12-14T13:05:38.538Z,21.13
2018-12-14T13:08:08.728Z,20.07
2018-12-14T13:10:39.065Z,18.77
2018-12-14T13:13:09.661Z,29.57
2018-12-14T13:15:40.014Z,17.77
2018-12-14T13:18:10.195Z,28.97
2018-12-14T13:20:40.583Z,22.17
2018-12-14T13:23:10.748Z,41.83
2018-12-14T13:25:41.010Z,36.17
2018-12-14T13:28:11.349Z,30.87
2018-12-14T13:30:41.617Z,32.23
2018-12-14T13:33:12.061Z,24.20
2018-12-14T13:35:42.513Z,27.97
2018-12-14T13:38:12.804Z,24.23
2018-12-14T13:40:43.053Z,23.57
2018-12-14T13:43:13.445Z,22.23
2018-12-14T13:45:43.730Z,19.17
2018-12-14T13:48:14.057Z,22.00
2018-12-14T13:50:44.332Z,21.47
2018-12-14T13:53:14.636Z,23.77
2018-12-14T13:55:45.104Z,19.93
2018-12-14T13:58:15.378Z,25.00
2018-12-14T14:00:45.802Z,21.07
2018-12-14T14:03:16.137Z,20.73
2018-12-14T14:05:46.578Z,19.30
2018-12-14T14:08:16.885Z,23.97
2018-12-14T14:10:47.267Z,21.57
2018-12-14T14:13:17.494Z,20.17
2018-12-14T14:15:50.798Z,21.50
2018-12-14T14:18:18.289Z,22.00
2018-12-14T14:20:48.588Z,19.03
2018-12-14T14:23:18.925Z,24.17
2018-12-14T14:25:49.341Z,30.43
2018-12-14T14:28:19.685Z,34.53
2018-12-14T14:30:50.049Z,33.80
2018-12-14T14:33:20.321Z,28.23
2018-12-14T14:35:50.706Z,24.43
2018-12-14T14:38:20.998Z,20.80
2018-12-14T14:40:51.342Z,18.67
2018-12-14T14:43:21.593Z,21.43
2018-12-14T14:45:51.825Z,14.83
2018-12-14T14:48:22.069Z,17.63
2018-12-14T14:50:52.470Z,19.67
2018-12-14T14:53:22.974Z,16.13
2018-12-14T14:55:53.218Z,20.80
2018-12-14T14:58:23.507Z,21.10
2018-12-14T15:00:53.776Z,24.90
2018-12-14T15:03:24.202Z,19.83
2018-12-14T15:05:54.708Z,21.73
2018-12-14T15:08:24.973Z,19.27
2018-12-14T15:10:55.326Z,14.33
2018-12-14T15:13:28.583Z,18.50
2018-12-14T15:15:59.090Z,19.67
2018-12-14T15:18:29.292Z,17.67
2018-12-14T15:20:59.001Z,19.30
2018-12-14T15:23:29.120Z,13.03
2018-12-14T15:25:59.389Z,16.67
2018-12-14T15:28:29.789Z,14.67
2018-12-14T15:30:59.977Z,8.90
2018-12-14T15:33:30.234Z,14.83
2018-12-14T15:36:00.490Z,20.00
2018-12-14T15:38:30.817Z,19.20
2018-12-14T15:41:01.130Z,17.43
2018-12-14T15:43:31.540Z,13.90
2018-12-14T15:46:01.924Z,17.97
2018-12-14T15:48:32.242Z,33.50
2018-12-14T15:51:02.528Z,34.97
2018-12-14T15:53:32.940Z,27.93
2018-12-14T15:56:03.236Z,30.57
2018-12-14T15:58:33.678Z,35.17
2018-12-14T16:01:04.062Z,31.70
2018-12-14T16:03:33.894Z,39.23
2018-12-14T16:06:04.297Z,23.70
2018-12-14T16:08:34.606Z,18.40
2018-12-14T16:11:04.891Z,46.93
2018-12-14T16:13:35.315Z,29.67
2018-12-14T16:16:05.656Z,32.47
2018-12-14T16:18:36.022Z,27.73
2018-12-14T16:21:06.319Z,22.20
2018-12-14T16:23:36.742Z,24.97
2018-12-14T16:26:07.122Z,9.10
2018-12-14T16:28:37.434Z,28.30
2018-12-14T16:31:07.702Z,15.97
2018-12-14T16:33:38.430Z,20.30
2018-12-14T16:36:08.742Z,12.17
2018-12-14T16:38:39.076Z,16.30
2018-12-14T16:41:09.341Z,19.07
2018-12-14T16:43:39.182Z,14.40
2018-12-14T16:46:09.517Z,17.00
2018-12-14T16:48:39.791Z,17.10
2018-12-14T16:51:10.154Z,18.33
2018-12-14T16:53:45.309Z,12.80
2018-12-14T16:56:15.621Z,14.50
2018-12-14T16:58:46.497Z,21.37
2018-12-14T17:01:17.199Z,14.20
2018-12-14T17:03:47.569Z,8.93
2018-12-14T17:06:17.982Z,10.60
2018-12-14T17:08:48.393Z,10.60
2018-12-14T17:11:18.689Z,9.00
2018-12-14T17:13:48.890Z,13.47
2018-12-14T17:16:19.165Z,14.03
2018-12-14T17:18:49.482Z,13.90
2018-12-14T17:21:19.882Z,13.53
2018-12-14T17:23:50.126Z,13.50
2018-12-14T17:26:20.453Z,9.10
2018-12-14T17:28:51.069Z,11.70
2018-12-14T17:31:21.295Z,10.43
2018-12-14T17:33:51.601Z,6.60
2018-12-14T17:36:21.829Z,7.87
2018-12-14T17:38:52.039Z,9.37
2018-12-14T17:41:22.267Z,12.13
2018-12-14T17:43:52.486Z,11.30
2018-12-14T17:46:22.654Z,19.77
2018-12-14T17:48:53.034Z,13.10
2018-12-14T17:51:23.262Z,20.92
2018-12-14T17:53:53.565Z,18.30
2018-12-14T17:56:23.881Z,19.90
2018-12-14T17:58:54.149Z,21.77
2018-12-14T18:01:24.460Z,20.53
2018-12-14T18:03:54.829Z,17.90
2018-12-14T18:06:25.110Z,13.70
2018-12-14T18:08:55.380Z,17.77
2018-12-14T18:11:25.688Z,16.10
2018-12-14T18:13:56.071Z,12.97
2018-12-14T18:16:26.432Z,16.87
2018-12-14T18:18:56.720Z,15.83
2018-12-14T18:21:27.018Z,12.90
2018-12-14T18:23:57.317Z,11.90
2018-12-14T18:26:27.559Z,9.73
2018-12-14T18:28:57.829Z,12.87
2018-12-14T18:31:28.096Z,11.83
2018-12-14T18:33:58.461Z,13.17
2018-12-14T18:36:28.740Z,17.27
2018-12-14T18:38:59.103Z,11.70
2018-12-14T18:41:29.341Z,12.47
2018-12-14T18:43:59.647Z,13.70
2018-12-14T18:46:29.959Z,17.17
2018-12-14T18:49:00.297Z,14.03
2018-12-14T18:51:30.627Z,13.87
2018-12-14T18:54:00.968Z,8.90
2018-12-14T18:56:31.653Z,20.50
2018-12-14T18:59:01.942Z,15.60
2018-12-14T19:01:32.239Z,16.00
2018-12-14T19:04:02.570Z,13.37
2018-12-14T19:06:32.772Z,12.97
2018-12-14T19:09:02.950Z,13.20
2018-12-14T19:11:33.185Z,11.17
2018-12-14T19:14:03.598Z,13.23
2018-12-14T19:16:33.304Z,12.90
2018-12-14T19:19:03.365Z,13.60
2018-12-14T19:21:33.694Z,12.37
2018-12-14T19:24:04.117Z,13.30
2018-12-14T19:26:34.154Z,12.43
2018-12-14T19:29:04.477Z,17.33
2018-12-14T19:31:34.652Z,13.57
2018-12-14T19:34:05.023Z,12.80
2018-12-14T19:36:35.380Z,16.63
2018-12-14T19:39:05.621Z,16.87
2018-12-14T19:41:35.717Z,16.07
2018-12-14T19:44:05.912Z,14.33
2018-12-14T19:46:36.186Z,13.27
2018-12-14T19:49:06.566Z,9.63
2018-12-14T19:51:36.805Z,16.37
2018-12-14T19:54:07.392Z,16.73
2018-12-14T19:56:37.618Z,13.13
2018-12-14T19:59:08.113Z,17.60
2018-12-14T20:01:38.369Z,15.10
2018-12-14T20:04:09.018Z,13.03
2018-12-14T20:06:39.125Z,19.57
2018-12-14T20:09:09.363Z,15.23
2018-12-14T20:11:39.773Z,18.17
2018-12-14T20:14:10.043Z,11.20
2018-12-14T20:16:39.753Z,20.70
2018-12-14T20:19:10.086Z,16.77
2018-12-14T20:21:40.486Z,17.83
2018-12-14T20:24:10.900Z,23.07
2018-12-14T20:26:41.226Z,19.23
2018-12-14T20:29:11.897Z,16.60
2018-12-14T20:31:41.606Z,19.80
2018-12-14T20:34:11.920Z,16.40
2018-12-14T20:36:42.171Z,18.10
2018-12-14T20:39:12.362Z,16.90
2018-12-14T20:41:42.673Z,17.30
2018-12-14T20:44:13.048Z,17.43
2018-12-14T20:46:43.478Z,16.53
2018-12-14T20:49:13.757Z,15.10
2018-12-14T20:51:44.030Z,14.47
2018-12-14T20:54:28.111Z,14.77
2018-12-14T20:56:58.901Z,16.03
2018-12-14T20:59:29.296Z,18.87
2018-12-14T21:01:59.714Z,19.00
2018-12-14T21:04:29.989Z,20.17
2018-12-14T21:07:00.374Z,16.13
2018-12-14T21:09:30.830Z,18.57
2018-12-14T21:12:01.096Z,19.90
2018-12-14T21:14:31.520Z,16.70
2018-12-14T21:17:01.900Z,20.30
2018-12-14T21:19:32.186Z,20.40
2018-12-14T21:22:02.523Z,22.30
2018-12-14T21:24:32.217Z,22.37
2018-12-14T21:27:02.478Z,24.87
2018-12-14T21:29:32.873Z,22.50
2018-12-14T21:32:02.567Z,23.53
2018-12-14T21:34:32.937Z,22.13
2018-12-14T21:37:03.261Z,25.50
2018-12-14T21:39:33.693Z,22.23
2018-12-14T21:42:04.201Z,21.40
2018-12-14T21:44:34.541Z,19.40
2018-12-14T21:47:05.009Z,20.40
2018-12-14T21:49:35.393Z,21.13
2018-12-14T21:52:05.972Z,19.67
2018-12-14T21:54:36.498Z,21.03
2018-12-14T21:57:06.744Z,21.00
2018-12-14T21:59:37.069Z,20.20
2018-12-14T22:02:07.496Z,20.73
2018-12-14T22:04:37.291Z,17.80
2018-12-14T22:07:07.642Z,24.97
2018-12-14T22:09:38.110Z,21.07
2018-12-14T22:12:08.565Z,18.37
2018-12-14T22:14:39.008Z,21.90
2018-12-14T22:17:09.367Z,18.93
2018-12-14T22:19:39.900Z,17.50
2018-12-14T22:22:10.392Z,22.27
2018-12-14T22:24:40.798Z,23.47
2018-12-14T22:27:11.189Z,20.47
2018-12-14T22:29:41.501Z,18.77
2018-12-14T22:32:11.848Z,22.80
2018-12-14T22:34:42.205Z,24.50
2018-12-14T22:37:12.922Z,24.87
2018-12-14T22:39:43.312Z,21.23
2018-12-14T22:42:13.672Z,24.60
2018-12-14T22:44:44.182Z,22.93
2018-12-14T22:47:14.533Z,25.80
2018-12-14T22:49:45.161Z,21.60
2018-12-14T22:52:15.398Z,23.90
2018-12-14T22:54:45.785Z,24.97
2018-12-14T22:57:16.192Z,24.00
2018-12-14T22:59:46.765Z,25.60
2018-12-14T23:02:17.292Z,26.53
2018-12-14T23:04:47.648Z,26.97
2018-12-14T23:07:18.000Z,26.27
2018-12-14T23:09:48.480Z,24.53
2018-12-14T23:12:18.954Z,23.53
2018-12-14T23:14:49.581Z,24.17
2018-12-14T23:17:19.829Z,24.37
2018-12-14T23:19:50.121Z,25.17
2018-12-14T23:22:20.596Z,24.57
2018-12-14T23:24:50.853Z,25.90
2018-12-14T23:27:21.076Z,25.40
2018-12-14T23:29:51.409Z,26.07
2018-12-14T23:32:21.703Z,26.90
2018-12-14T23:34:52.133Z,27.83
2018-12-14T23:37:22.565Z,23.57
2018-12-14T23:39:52.911Z,24.60
2018-12-14T23:42:23.326Z,23.80
2018-12-14T23:44:53.723Z,25.77
2018-12-14T23:47:24.061Z,27.87
2018-12-14T23:49:54.393Z,28.60
2018-12-14T23:52:24.821Z,29.07
2018-12-14T23:54:55.179Z,27.00
2018-12-14T23:57:25.437Z,25.47
2018-12-14T23:59:55.854Z,24.27
